»·PEaware :: N121BH L88-KSBP

N121BH :: L88-KSBP

FLIGHT INFORMATION

Flight Status: Arrived
Operator: Privately registered:
United States
More flights under this callsign
Pilot: Brian H. (19969)
Aircraft: CESSNA 172 SKYHAWK
(C172)
More flights by this aircraft type
Origin: L88 New Cuyama
United States
Destination: KSBP San Luis Co Regl
United States
More flights between these airports :: More routes between these airports
Route:
File this flight plan on PilotEdge
Remarks: CAT-02
Altitude:
(Current/Filed)
4,500ft
Speed:
(Current/Filed)
100kts
Departed: 05-Aug-18 05:22 PM
Arrived: 05-Aug-18 08:19 PM
Distance/Time
Traveled:
50nm/2:57
Distance/Time
To Go:
Arrived

Flight Plot

Page will automatically refresh every two minutes.


Map Options




Map Legend


Flown Route
Filed Route
Departure Airport
Arrival Airport
Navaid (VOR, NDB)
Fix

Horizontal Profiles

Position Reports

Time Latitude Longitude Heading Altitude Ground
Speed
05-Aug-18 17:03 34.942856 -119.690285 204 2153ft 0kts
05-Aug-18 17:04 34.942856 -119.690285 204 2153ft 0kts
05-Aug-18 17:05 34.942856 -119.690285 204 2153ft 0kts
05-Aug-18 17:06 34.942856 -119.690285 204 2153ft 0kts
05-Aug-18 17:07 34.942856 -119.690285 204 2153ft 0kts
05-Aug-18 17:08 34.942856 -119.690285 204 2153ft 0kts
05-Aug-18 17:09 34.942856 -119.690285 204 2153ft 0kts
05-Aug-18 17:10 34.942856 -119.690285 204 2153ft 0kts
05-Aug-18 17:11 34.942856 -119.690285 204 2153ft 0kts
05-Aug-18 17:12 34.942856 -119.690285 204 2153ft 0kts
05-Aug-18 17:13 34.942856 -119.690285 204 2153ft 0kts
05-Aug-18 17:14 34.942856 -119.690285 204 2153ft 0kts
05-Aug-18 17:15 34.942856 -119.690285 204 2153ft 0kts
05-Aug-18 17:16 34.942856 -119.690285 204 2153ft 0kts
05-Aug-18 17:17 34.942856 -119.690285 204 2153ft 0kts
05-Aug-18 17:18 34.942856 -119.690285 204 2153ft 0kts
05-Aug-18 17:19 34.942555 -119.691318 129 2151ft 0kts
05-Aug-18 17:20 34.942530 -119.691286 134 2151ft 2kts
05-Aug-18 17:21 34.940450 -119.686946 116 2170ft 18kts
05-Aug-18 17:22 34.939219 -119.684004 91 2186ft 7kts
05-Aug-18 17:23 34.941906 -119.690277 299 2192ft 87kts
05-Aug-18 17:24 34.951650 -119.715556 294 3122ft 95kts
05-Aug-18 17:25 34.961667 -119.740740 295 3704ft 103kts
05-Aug-18 17:26 34.976254 -119.777405 295 4477ft 107kts
05-Aug-18 17:27 34.990881 -119.814121 295 4500ft 127kts
05-Aug-18 17:28 35.002466 -119.843142 295 4499ft 102kts
05-Aug-18 17:29 35.014524 -119.873616 295 4499ft 99kts
05-Aug-18 17:30 35.026395 -119.903641 295 4499ft 98kts
05-Aug-18 17:31 35.038215 -119.933541 295 4499ft 98kts
05-Aug-18 17:32 35.049846 -119.963003 295 4499ft 98kts
05-Aug-18 17:33 35.061721 -119.993094 295 4499ft 98kts
05-Aug-18 17:34 35.072595 -120.020730 295 4500ft 104kts
05-Aug-18 17:35 35.084889 -120.051875 295 4499ft 104kts
05-Aug-18 17:36 35.097526 -120.083979 295 4500ft 105kts
05-Aug-18 17:37 35.109683 -120.114904 295 4499ft 105kts
05-Aug-18 17:38 35.122323 -120.147074 295 4499ft 105kts
05-Aug-18 17:39 35.135025 -120.179206 297 4499ft 105kts
05-Aug-18 17:40 35.147639 -120.211565 295 4499ft 105kts
05-Aug-18 17:41 35.160206 -120.243807 292 4499ft 105kts
05-Aug-18 17:42 35.159948 -120.279392 266 4499ft 105kts
05-Aug-18 17:43 35.158078 -120.315000 266 4499ft 105kts
05-Aug-18 17:44 35.156125 -120.350719 266 4499ft 105kts
05-Aug-18 17:45 35.154174 -120.386192 266 4499ft 105kts
05-Aug-18 17:46 35.152164 -120.421882 265 4392ft 122kts
05-Aug-18 17:47 35.149713 -120.466849 266 3891ft 118kts
05-Aug-18 17:48 35.160771 -120.498571 302 3381ft 97kts
05-Aug-18 17:49 35.158707 -120.525357 213 2871ft 95kts
05-Aug-18 17:50 35.136095 -120.516867 122 2367ft 117kts
05-Aug-18 17:51 35.136240 -120.482958 33 2000ft 114kts
05-Aug-18 17:52 35.159161 -120.496095 303 1999ft 106kts
05-Aug-18 17:53 35.175139 -120.526074 301 1999ft 105kts
05-Aug-18 17:54 35.159616 -120.547839 164 1996ft 105kts
05-Aug-18 17:55 35.141834 -120.520234 122 1999ft 105kts
05-Aug-18 17:56 35.126018 -120.490286 122 1999ft 105kts
05-Aug-18 17:57 35.124849 -120.460423 23 1997ft 105kts
05-Aug-18 17:58 35.148090 -120.477964 308 2000ft 105kts
05-Aug-18 17:59 35.164564 -120.507359 283 1997ft 105kts
05-Aug-18 18:00 35.145014 -120.526443 157 1996ft 105kts
05-Aug-18 18:01 35.127655 -120.498123 122 1999ft 105kts
05-Aug-18 18:02 35.120702 -120.466840 44 1997ft 105kts
05-Aug-18 18:03 35.138752 -120.459739 330 1996ft 105kts
05-Aug-18 18:04 35.154925 -120.489013 286 1997ft 105kts
05-Aug-18 18:05 35.135858 -120.509611 165 1997ft 105kts
05-Aug-18 18:06 35.118219 -120.481897 122 1999ft 105kts
05-Aug-18 18:07 35.118557 -120.452093 30 1999ft 105kts
05-Aug-18 18:08 35.142208 -120.467368 309 2000ft 105kts
05-Aug-18 18:09 35.156325 -120.497839 258 1996ft 105kts
05-Aug-18 18:10 35.134321 -120.519876 212 2140ft 101kts
05-Aug-18 18:11 35.113057 -120.518017 123 2161ft 90kts
05-Aug-18 18:12 35.110517 -120.492049 35 2161ft 88kts
05-Aug-18 18:13 35.132433 -120.485283 333 2161ft 88kts
05-Aug-18 18:14 35.154254 -120.499205 327 2161ft 89kts
05-Aug-18 18:15 35.171333 -120.520755 306 2161ft 89kts
05-Aug-18 18:16 35.169001 -120.544939 212 2161ft 88kts
05-Aug-18 18:17 35.148072 -120.560961 212 2161ft 88kts
05-Aug-18 18:18 35.125061 -120.565715 129 2161ft 103kts
05-Aug-18 18:19 35.109277 -120.535545 122 2161ft 106kts
05-Aug-18 18:20 35.109754 -120.505441 33 2161ft 106kts
05-Aug-18 18:21 35.134942 -120.486098 32 2161ft 107kts
05-Aug-18 18:22 35.158355 -120.494164 302 2161ft 107kts
05-Aug-18 18:23 35.174425 -120.524668 303 2161ft 107kts
05-Aug-18 18:24 35.187530 -120.556266 257 2158ft 107kts
05-Aug-18 18:25 35.164809 -120.578718 213 2161ft 107kts
05-Aug-18 18:26 35.142840 -120.562904 123 2161ft 107kts
05-Aug-18 18:27 35.126717 -120.532376 122 2161ft 107kts
05-Aug-18 18:28 35.117363 -120.500503 55 2158ft 107kts
05-Aug-18 18:29 35.141762 -120.479762 32 2161ft 107kts
05-Aug-18 18:30 35.161712 -120.494465 290 2161ft 107kts
05-Aug-18 18:31 35.174702 -120.527045 275 2158ft 107kts
05-Aug-18 18:32 35.154454 -120.551143 212 2161ft 107kts
05-Aug-18 18:33 35.129437 -120.570733 212 2161ft 107kts
05-Aug-18 18:34 35.106534 -120.559888 122 2161ft 107kts
05-Aug-18 18:35 35.108523 -120.530140 33 2161ft 106kts
05-Aug-18 18:36 35.133492 -120.510543 32 2161ft 107kts
05-Aug-18 18:37 35.158515 -120.490940 32 2161ft 107kts
05-Aug-18 18:38 35.175672 -120.508935 273 2161ft 107kts
05-Aug-18 18:39 35.185236 -120.543069 299 2161ft 107kts
05-Aug-18 18:40 35.188115 -120.574442 215 2161ft 107kts
05-Aug-18 18:41 35.162992 -120.593742 211 2161ft 107kts
05-Aug-18 18:42 35.138523 -120.590919 123 2161ft 107kts
05-Aug-18 18:43 35.122416 -120.560432 122 2161ft 107kts
05-Aug-18 18:44 35.109378 -120.528703 77 2158ft 107kts
05-Aug-18 18:45 35.132039 -120.506315 32 2161ft 107kts
05-Aug-18 18:46 35.157119 -120.486593 29 2161ft 107kts
05-Aug-18 18:47 35.172943 -120.507944 276 2161ft 107kts
05-Aug-18 18:48 35.184109 -120.541444 300 2161ft 107kts
05-Aug-18 18:49 35.193824 -120.573821 238 2158ft 107kts
05-Aug-18 18:50 35.169680 -120.594598 212 2161ft 107kts
05-Aug-18 18:51 35.144609 -120.614230 212 2161ft 107kts
05-Aug-18 19:00 35.103273 -120.624321 33 18ft 0kts
05-Aug-18 19:01 35.103273 -120.624321 33 18ft 0kts
05-Aug-18 19:02 35.103273 -120.624321 33 18ft 0kts
05-Aug-18 19:03 35.103273 -120.624321 33 18ft 0kts
05-Aug-18 19:04 35.103273 -120.624321 33 18ft 0kts
05-Aug-18 19:05 35.103273 -120.624321 33 18ft 0kts
05-Aug-18 19:06 35.103273 -120.624321 33 18ft 0kts
05-Aug-18 19:07 35.103273 -120.624321 33 18ft 0kts
05-Aug-18 19:08 35.103273 -120.624321 33 18ft 0kts
05-Aug-18 19:09 35.103273 -120.624321 33 18ft 0kts
05-Aug-18 19:10 35.103273 -120.624321 33 18ft 0kts
05-Aug-18 19:11 35.103273 -120.624321 33 18ft 0kts
05-Aug-18 19:12 35.103273 -120.624321 33 18ft 0kts
05-Aug-18 19:13 35.103273 -120.624321 33 18ft 0kts
05-Aug-18 19:14 35.103273 -120.624321 33 18ft 0kts
05-Aug-18 19:15 35.103273 -120.624321 33 18ft 0kts
05-Aug-18 19:16 35.103273 -120.624321 33 18ft 0kts
05-Aug-18 19:17 35.103273 -120.624321 33 18ft 0kts
05-Aug-18 19:18 35.103273 -120.624321 33 18ft 0kts
05-Aug-18 19:19 35.103273 -120.624321 33 18ft 0kts
05-Aug-18 19:20 35.103273 -120.624321 33 18ft 0kts
05-Aug-18 19:21 35.103273 -120.624321 33 18ft 0kts
05-Aug-18 19:22 35.103273 -120.624321 33 18ft 0kts
05-Aug-18 19:23 35.103273 -120.624321 33 18ft 0kts
05-Aug-18 19:24 35.103273 -120.624321 33 18ft 0kts
05-Aug-18 19:25 35.103273 -120.624321 33 18ft 0kts
05-Aug-18 19:26 35.103273 -120.624321 33 18ft 0kts
05-Aug-18 19:27 35.103273 -120.624321 33 18ft 0kts
05-Aug-18 19:28 35.103273 -120.624321 33 18ft 0kts
05-Aug-18 19:29 35.103273 -120.624321 33 18ft 0kts
05-Aug-18 19:30 35.103273 -120.624321 33 18ft 0kts
05-Aug-18 19:31 35.103273 -120.624321 33 18ft 0kts
05-Aug-18 19:32 35.103273 -120.624321 33 18ft 0kts
05-Aug-18 19:33 35.103273 -120.624321 33 18ft 0kts
05-Aug-18 19:34 35.103273 -120.624321 33 18ft 0kts
05-Aug-18 19:35 34.942853 -119.690285 204 2153ft 0kts
05-Aug-18 19:36 34.942853 -119.690285 204 2153ft 0kts
05-Aug-18 19:37 34.942853 -119.690285 204 2153ft 0kts
05-Aug-18 19:38 34.942853 -119.690285 204 2153ft 0kts
05-Aug-18 19:39 34.942853 -119.690285 204 2153ft 0kts
05-Aug-18 19:40 34.942841 -119.690292 203 2153ft 0kts
05-Aug-18 19:41 34.942853 -119.690285 204 2153ft 0kts
05-Aug-18 19:42 34.942853 -119.690285 204 2153ft 0kts
05-Aug-18 19:43 34.942853 -119.690285 204 2153ft 0kts
05-Aug-18 19:44 34.942853 -119.690285 204 2153ft 0kts
05-Aug-18 19:45 34.942740 -119.690418 240 2153ft 6kts
05-Aug-18 19:46 34.940663 -119.687418 117 2165ft 22kts
05-Aug-18 19:47 34.939277 -119.683860 299 2186ft 5kts
05-Aug-18 19:48 34.940916 -119.688061 297 2162ft 79kts
05-Aug-18 19:49 34.948483 -119.706617 291 3167ft 62kts
05-Aug-18 19:50 34.957130 -119.729572 294 3954ft 84kts
05-Aug-18 19:51 34.968377 -119.757767 295 4501ft 112kts
05-Aug-18 19:52 34.983383 -119.795177 295 4499ft 124kts
05-Aug-18 19:53 34.996622 -119.828411 295 4499ft 101kts
05-Aug-18 19:54 35.008884 -119.859396 295 4500ft 102kts
05-Aug-18 19:55 35.021278 -119.890699 295 4499ft 102kts
05-Aug-18 19:56 35.033618 -119.921900 295 4499ft 102kts
05-Aug-18 19:57 35.045984 -119.953202 295 4500ft 102kts
05-Aug-18 19:58 35.058344 -119.984516 295 4499ft 102kts
05-Aug-18 19:59 35.070740 -120.015945 295 4500ft 103kts
05-Aug-18 20:00 35.083177 -120.047523 295 4499ft 103kts
05-Aug-18 20:01 35.095227 -120.078160 295 4555ft 101kts
05-Aug-18 20:02 35.107566 -120.109499 295 4554ft 102kts
05-Aug-18 20:03 35.119946 -120.141028 295 4554ft 103kts
05-Aug-18 20:04 35.132170 -120.172168 295 4554ft 102kts
05-Aug-18 20:05 35.144493 -120.203586 295 4554ft 102kts
05-Aug-18 20:06 35.156800 -120.235006 295 4554ft 102kts
05-Aug-18 20:07 35.160466 -120.268595 266 4554ft 102kts
05-Aug-18 20:08 35.146734 -120.297835 212 4280ft 112kts
05-Aug-18 20:09 35.120979 -120.318028 212 3779ft 109kts
05-Aug-18 20:10 35.095379 -120.338060 212 3279ft 108kts
05-Aug-18 20:11 35.089843 -120.365540 301 2768ft 99kts
05-Aug-18 20:12 35.104607 -120.393992 303 2655ft 104kts
05-Aug-18 20:13 35.120597 -120.423939 303 2651ft 106kts
05-Aug-18 20:14 35.137247 -120.455061 303 2554ft 107kts
05-Aug-18 20:15 35.153443 -120.485396 303 2554ft 106kts
05-Aug-18 20:16 35.169510 -120.515488 303 2554ft 106kts
05-Aug-18 20:17 35.187403 -120.548985 303 1997ft 127kts
05-Aug-18 20:18 35.206863 -120.585462 303 1305ft 128kts
05-Aug-18 20:19 35.224920 -120.619062 304 594ft 99kts
05-Aug-18 20:20 35.236278 -120.639092 305 195ft 36kts
05-Aug-18 20:21 35.237487 -120.639902 6 191ft 0kts
05-Aug-18 20:22 35.236675 -120.637904 123 199ft 17kts
05-Aug-18 20:23 35.236560 -120.636101 256 206ft 0kts
05-Aug-18 20:24 35.236560 -120.636101 256 206ft 0kts
05-Aug-18 20:25 35.236560 -120.636101 256 206ft 0kts
05-Aug-18 20:26 35.236560 -120.636101 256 206ft 0kts

Navigation Log

Ident Type
1. L88 Airport
2. KSBP Airport